CCKS11 SCPC-SCGE
Flight info
| Callsign | CCKS11 |
|---|---|
| Flight time | N/A |
| Altitude | 5000 |
| Route | NIA |
| Aircraft | BE58/L-SDFGRY/C |
Departure
| Time | 2026-04-17 12:34 |
|---|---|
| Airport | Pucón Airport (SCPC) |
Arrival
| Time | N/A |
|---|---|
| Airport | María Dolores Airport (SCGE) |
| Time | Latitude | Longitude | Altitude | Speed | Heading |
|---|---|---|---|---|---|
| 2026-04-17 12:09 | -39.29031 | -71.92085 | 882 ft | 0 kts | 10° |
| 2026-04-17 12:28 | -39.29069 | -71.92559 | 882 ft | 0 kts | 102° |
| 2026-04-17 12:32 | -39.29070 | -71.92551 | 882 ft | 13 kts | 102° |
| 2026-04-17 12:33 | -39.29105 | -71.92333 | 882 ft | 59 kts | 102° |
| 2026-04-17 12:33 | -39.29233 | -71.91579 | 887 ft | 108 kts | 101° |
| 2026-04-17 12:33 | -39.29363 | -71.90603 | 1163 ft | 115 kts | 96° |
| 2026-04-17 12:33 | -39.29438 | -71.89541 | 1442 ft | 122 kts | 92° |
| 2026-04-17 12:34 | -39.29422 | -71.88426 | 1713 ft | 128 kts | 85° |
| 2026-04-17 12:34 | -39.29356 | -71.87209 | 1973 ft | 142 kts | 84° |
| 2026-04-17 12:34 | -39.29227 | -71.85894 | 2274 ft | 150 kts | 69° |
| 2026-04-17 12:34 | -39.28529 | -71.84930 | 2580 ft | 151 kts | 23° |
| 2026-04-17 12:35 | -39.27499 | -71.84916 | 2887 ft | 154 kts | 338° |
| 2026-04-17 12:35 | -39.26750 | -71.85879 | 3197 ft | 157 kts | 295° |
| 2026-04-17 12:35 | -39.26447 | -71.87258 | 3529 ft | 160 kts | 283° |
| 2026-04-17 12:35 | -39.26228 | -71.88669 | 3834 ft | 162 kts | 282° |
| 2026-04-17 12:37 | -39.24533 | -71.98919 | 5954 ft | 168 kts | 287° |
| 2026-04-17 12:37 | -39.24195 | -72.00349 | 6253 ft | 167 kts | 292° |
| 2026-04-17 12:38 | -39.23743 | -72.01751 | 6558 ft | 167 kts | 297° |
| 2026-04-17 12:38 | -39.23221 | -72.03072 | 6824 ft | 169 kts | 301° |
| 2026-04-17 12:38 | -39.22642 | -72.04370 | 6940 ft | 164 kts | 303° |
| 2026-04-17 12:38 | -39.22039 | -72.05628 | 6989 ft | 165 kts | 304° |
| 2026-04-17 12:39 | -39.21415 | -72.06874 | 7000 ft | 168 kts | 305° |
| 2026-04-17 12:39 | -39.20760 | -72.08147 | 7002 ft | 169 kts | 306° |
| 2026-04-17 12:39 | -39.20099 | -72.09413 | 7002 ft | 171 kts | 306° |
| 2026-04-17 12:39 | -39.19435 | -72.10675 | 7001 ft | 172 kts | 306° |
| 2026-04-17 12:40 | -39.18757 | -72.11952 | 7026 ft | 173 kts | 305° |
| 2026-04-17 12:40 | -39.18226 | -72.12954 | 7029 ft | 174 kts | 305° |
| 2026-04-17 12:40 | -39.18054 | -72.13277 | 7030 ft | 174 kts | 305° |
| 2026-04-17 12:40 | -39.17883 | -72.13600 | 7030 ft | 174 kts | 305° |
| 2026-04-17 12:41 | -39.17711 | -72.13922 | 7030 ft | 175 kts | 305° |
| 2026-04-17 12:41 | -39.17540 | -72.14245 | 7030 ft | 175 kts | 305° |
| 2026-04-17 12:41 | -39.17366 | -72.14571 | 7030 ft | 175 kts | 305° |
| 2026-04-17 12:41 | -39.17194 | -72.14894 | 7030 ft | 175 kts | 305° |
| 2026-04-17 12:42 | -39.17023 | -72.15217 | 7030 ft | 175 kts | 305° |
| 2026-04-17 12:42 | -39.16851 | -72.15540 | 7030 ft | 175 kts | 305° |
| 2026-04-17 12:42 | -39.16679 | -72.15862 | 7030 ft | 175 kts | 305° |
| 2026-04-17 12:42 | -39.16507 | -72.16186 | 7030 ft | 175 kts | 305° |
| 2026-04-17 12:43 | -39.16333 | -72.16512 | 7030 ft | 175 kts | 305° |
| 2026-04-17 12:43 | -39.16159 | -72.16838 | 7030 ft | 176 kts | 305° |
| 2026-04-17 12:43 | -39.15988 | -72.17160 | 7030 ft | 176 kts | 305° |
| 2026-04-17 12:43 | -39.15815 | -72.17484 | 7030 ft | 176 kts | 305° |
| 2026-04-17 12:44 | -39.15641 | -72.17810 | 7030 ft | 176 kts | 305° |
| 2026-04-17 12:44 | -39.15467 | -72.18137 | 7030 ft | 176 kts | 305° |
| 2026-04-17 12:44 | -39.15294 | -72.18461 | 7030 ft | 176 kts | 305° |
| 2026-04-17 12:44 | -39.15121 | -72.18784 | 7030 ft | 176 kts | 305° |
| 2026-04-17 12:45 | -39.14949 | -72.19108 | 7030 ft | 176 kts | 305° |
| 2026-04-17 12:45 | -39.14774 | -72.19435 | 7030 ft | 176 kts | 305° |
| 2026-04-17 12:45 | -39.14601 | -72.19758 | 7030 ft | 176 kts | 305° |
| 2026-04-17 12:45 | -39.14429 | -72.20081 | 7030 ft | 176 kts | 305° |
| 2026-04-17 12:46 | -39.14257 | -72.20404 | 7030 ft | 176 kts | 305° |
| 2026-04-17 12:46 | -39.14082 | -72.20732 | 7030 ft | 176 kts | 305° |
| 2026-04-17 12:46 | -39.13910 | -72.21054 | 7030 ft | 176 kts | 305° |
| 2026-04-17 12:46 | -39.13736 | -72.21379 | 7030 ft | 176 kts | 305° |
| 2026-04-17 12:47 | -39.13562 | -72.21705 | 7030 ft | 176 kts | 305° |
| 2026-04-17 12:47 | -39.13389 | -72.22028 | 7030 ft | 176 kts | 305° |
| 2026-04-17 12:47 | -39.13216 | -72.22352 | 7030 ft | 176 kts | 305° |
| 2026-04-17 12:47 | -39.13043 | -72.22677 | 7030 ft | 176 kts | 305° |
| 2026-04-17 12:48 | -39.12869 | -72.23001 | 7030 ft | 176 kts | 305° |
| 2026-04-17 12:48 | -39.12697 | -72.23324 | 7030 ft | 176 kts | 305° |
| 2026-04-17 12:48 | -39.12521 | -72.23652 | 7030 ft | 176 kts | 305° |
| 2026-04-17 12:48 | -39.12348 | -72.23976 | 7030 ft | 176 kts | 305° |
| 2026-04-17 12:49 | -39.12174 | -72.24301 | 7030 ft | 176 kts | 305° |
| 2026-04-17 12:49 | -39.12001 | -72.24625 | 7030 ft | 176 kts | 305° |
| 2026-04-17 12:49 | -39.11829 | -72.24947 | 7030 ft | 176 kts | 305° |
| 2026-04-17 12:49 | -39.11654 | -72.25273 | 7030 ft | 176 kts | 305° |
| 2026-04-17 12:50 | -39.11481 | -72.25598 | 7030 ft | 176 kts | 305° |
| 2026-04-17 12:50 | -39.11308 | -72.25920 | 7030 ft | 176 kts | 305° |
| 2026-04-17 12:50 | -39.11133 | -72.26247 | 7030 ft | 176 kts | 305° |
| 2026-04-17 12:50 | -39.10959 | -72.26572 | 7030 ft | 176 kts | 305° |
| 2026-04-17 12:51 | -39.10786 | -72.26895 | 7030 ft | 176 kts | 305° |
| 2026-04-17 12:51 | -39.10615 | -72.27215 | 7030 ft | 176 kts | 305° |
| 2026-04-17 12:51 | -39.10439 | -72.27543 | 7030 ft | 176 kts | 305° |
| 2026-04-17 12:51 | -39.10267 | -72.27865 | 7030 ft | 176 kts | 305° |
| 2026-04-17 12:52 | -39.10093 | -72.28190 | 7030 ft | 176 kts | 305° |
| 2026-04-17 12:52 | -39.09918 | -72.28516 | 7030 ft | 176 kts | 305° |
| 2026-04-17 12:52 | -39.09747 | -72.28837 | 7030 ft | 176 kts | 305° |
| 2026-04-17 12:52 | -39.09573 | -72.29162 | 7030 ft | 176 kts | 305° |
| 2026-04-17 12:53 | -39.09398 | -72.29487 | 7030 ft | 176 kts | 305° |
| 2026-04-17 12:53 | -39.09224 | -72.29812 | 7030 ft | 176 kts | 305° |
| 2026-04-17 12:53 | -39.09052 | -72.30134 | 7030 ft | 176 kts | 305° |
| 2026-04-17 12:53 | -39.08876 | -72.30461 | 7030 ft | 176 kts | 305° |
| 2026-04-17 12:54 | -39.08703 | -72.30785 | 7030 ft | 176 kts | 305° |
| 2026-04-17 12:54 | -39.08530 | -72.31108 | 7030 ft | 176 kts | 305° |
| 2026-04-17 12:54 | -39.08355 | -72.31434 | 7030 ft | 176 kts | 305° |
| 2026-04-17 12:54 | -39.08182 | -72.31758 | 7030 ft | 176 kts | 305° |
| 2026-04-17 12:55 | -39.08009 | -72.32080 | 7030 ft | 176 kts | 305° |
| 2026-04-17 12:55 | -39.07836 | -72.32402 | 7030 ft | 176 kts | 305° |
| 2026-04-17 12:55 | -39.07662 | -72.32728 | 7030 ft | 176 kts | 305° |
| 2026-04-17 12:55 | -39.07488 | -72.33051 | 7030 ft | 176 kts | 305° |
| 2026-04-17 12:56 | -39.07314 | -72.33376 | 7030 ft | 176 kts | 305° |
| 2026-04-17 12:56 | -39.07140 | -72.33701 | 7030 ft | 176 kts | 305° |
| 2026-04-17 12:56 | -39.06966 | -72.34025 | 7030 ft | 176 kts | 305° |
| 2026-04-17 12:56 | -39.06793 | -72.34348 | 7030 ft | 176 kts | 305° |
| 2026-04-17 12:57 | -39.06619 | -72.34671 | 7030 ft | 176 kts | 305° |
| 2026-04-17 12:57 | -39.06445 | -72.34997 | 7030 ft | 176 kts | 305° |
| 2026-04-17 12:57 | -39.06273 | -72.35316 | 7030 ft | 176 kts | 305° |
| 2026-04-17 12:57 | -39.06097 | -72.35644 | 7030 ft | 176 kts | 305° |
| 2026-04-17 12:58 | -39.05923 | -72.35969 | 7030 ft | 176 kts | 305° |
| 2026-04-17 12:58 | -39.05751 | -72.36289 | 7030 ft | 176 kts | 305° |
| 2026-04-17 12:58 | -39.05575 | -72.36616 | 7030 ft | 176 kts | 305° |
| 2026-04-17 12:58 | -39.05403 | -72.36938 | 7030 ft | 176 kts | 305° |
| 2026-04-17 12:59 | -39.05228 | -72.37263 | 7030 ft | 176 kts | 305° |
| 2026-04-17 12:59 | -39.05054 | -72.37587 | 7030 ft | 176 kts | 305° |
| 2026-04-17 12:59 | -39.04881 | -72.37910 | 7030 ft | 176 kts | 305° |
| 2026-04-17 12:59 | -39.04707 | -72.38234 | 7030 ft | 176 kts | 305° |
| 2026-04-17 13:00 | -39.04534 | -72.38556 | 7029 ft | 176 kts | 305° |
| 2026-04-17 13:00 | -39.04360 | -72.38880 | 7029 ft | 176 kts | 305° |
| 2026-04-17 13:00 | -39.04186 | -72.39204 | 7030 ft | 176 kts | 305° |
| 2026-04-17 13:00 | -39.04011 | -72.39530 | 7030 ft | 176 kts | 305° |
| 2026-04-17 13:01 | -39.03835 | -72.39856 | 7030 ft | 176 kts | 305° |
| 2026-04-17 13:01 | -39.03663 | -72.40176 | 7030 ft | 176 kts | 305° |
| 2026-04-17 13:01 | -39.03488 | -72.40502 | 7030 ft | 176 kts | 305° |
| 2026-04-17 13:01 | -39.03316 | -72.40823 | 7030 ft | 176 kts | 305° |
| 2026-04-17 13:02 | -39.03143 | -72.41144 | 7030 ft | 176 kts | 305° |
| 2026-04-17 13:02 | -39.02968 | -72.41470 | 7030 ft | 176 kts | 305° |
| 2026-04-17 13:02 | -39.02852 | -72.41686 | 7030 ft | 176 kts | 305° |
| 2026-04-17 13:02 | -39.02619 | -72.42118 | 7030 ft | 176 kts | 305° |
| 2026-04-17 13:03 | -39.02504 | -72.42332 | 7030 ft | 176 kts | 305° |
| 2026-04-17 13:03 | -39.02329 | -72.42657 | 7030 ft | 176 kts | 305° |
| 2026-04-17 13:03 | -39.02155 | -72.42981 | 7030 ft | 176 kts | 305° |
| 2026-04-17 13:03 | -39.01979 | -72.43308 | 7030 ft | 176 kts | 305° |
| 2026-04-17 13:04 | -39.01806 | -72.43630 | 7030 ft | 176 kts | 305° |
| 2026-04-17 13:04 | -39.01632 | -72.43953 | 7030 ft | 176 kts | 305° |
| 2026-04-17 13:04 | -39.01459 | -72.44274 | 7030 ft | 176 kts | 305° |
| 2026-04-17 13:04 | -39.01284 | -72.44601 | 7030 ft | 176 kts | 305° |
| 2026-04-17 13:05 | -39.01111 | -72.44922 | 7030 ft | 176 kts | 305° |
| 2026-04-17 13:05 | -39.00934 | -72.45249 | 7030 ft | 176 kts | 305° |
| 2026-04-17 13:05 | -39.00763 | -72.45568 | 7030 ft | 176 kts | 305° |
| 2026-04-17 13:05 | -39.00589 | -72.45892 | 7030 ft | 176 kts | 305° |
| 2026-04-17 13:06 | -39.00413 | -72.46218 | 7030 ft | 176 kts | 305° |
| 2026-04-17 13:06 | -39.00241 | -72.46537 | 7030 ft | 176 kts | 305° |
| 2026-04-17 13:06 | -39.00065 | -72.46865 | 7030 ft | 176 kts | 305° |
| 2026-04-17 13:06 | -38.99950 | -72.47078 | 7030 ft | 176 kts | 305° |
| 2026-04-17 13:07 | -38.99718 | -72.47509 | 7030 ft | 176 kts | 305° |
| 2026-04-17 13:07 | -38.99542 | -72.47834 | 7030 ft | 176 kts | 305° |
| 2026-04-17 13:07 | -38.99428 | -72.48046 | 7030 ft | 176 kts | 305° |
| 2026-04-17 13:07 | -38.99254 | -72.48369 | 7030 ft | 176 kts | 305° |
| 2026-04-17 13:08 | -38.99079 | -72.48694 | 7030 ft | 176 kts | 305° |
| 2026-04-17 13:08 | -38.98846 | -72.49127 | 7030 ft | 176 kts | 305° |
| 2026-04-17 13:08 | -38.98671 | -72.49451 | 7030 ft | 176 kts | 305° |
| 2026-04-17 13:08 | -38.98557 | -72.49664 | 7030 ft | 176 kts | 305° |
| 2026-04-17 13:09 | -38.98381 | -72.49989 | 7030 ft | 176 kts | 305° |
| 2026-04-17 13:09 | -38.98148 | -72.50421 | 7030 ft | 176 kts | 305° |
| 2026-04-17 13:09 | -38.98033 | -72.50634 | 7030 ft | 176 kts | 305° |
| 2026-04-17 13:09 | -38.97801 | -72.51064 | 7030 ft | 176 kts | 305° |
| 2026-04-17 13:10 | -38.97627 | -72.51388 | 7030 ft | 176 kts | 305° |
| 2026-04-17 13:10 | -38.97509 | -72.51606 | 7030 ft | 176 kts | 305° |
| 2026-04-17 13:10 | -38.97280 | -72.52031 | 7030 ft | 176 kts | 305° |
| 2026-04-17 13:10 | -38.97161 | -72.52252 | 7030 ft | 176 kts | 305° |
| 2026-04-17 13:11 | -38.96930 | -72.52680 | 7030 ft | 176 kts | 305° |
| 2026-04-17 13:11 | -38.96814 | -72.52894 | 7030 ft | 176 kts | 305° |
| 2026-04-17 13:11 | -38.96637 | -72.53223 | 7030 ft | 176 kts | 305° |
| 2026-04-17 13:11 | -38.96407 | -72.53650 | 7030 ft | 176 kts | 305° |
| 2026-04-17 13:12 | -38.96290 | -72.53867 | 7030 ft | 176 kts | 305° |
| 2026-04-17 13:12 | -38.95942 | -72.54511 | 7030 ft | 176 kts | 305° |
| 2026-04-17 13:12 | -38.95767 | -72.54835 | 7030 ft | 176 kts | 305° |
| 2026-04-17 13:13 | -38.95537 | -72.55262 | 7030 ft | 176 kts | 305° |
| 2026-04-17 13:13 | -38.95419 | -72.55480 | 7030 ft | 176 kts | 305° |
| 2026-04-17 13:13 | -38.95186 | -72.55911 | 7030 ft | 176 kts | 305° |
| 2026-04-17 13:13 | -38.95069 | -72.56127 | 7030 ft | 176 kts | 305° |
| 2026-04-17 13:14 | -38.94896 | -72.56449 | 7030 ft | 176 kts | 305° |
| 2026-04-17 13:14 | -38.94663 | -72.56879 | 7030 ft | 176 kts | 305° |
| 2026-04-17 13:14 | -38.94547 | -72.57095 | 7030 ft | 176 kts | 305° |
| 2026-04-17 13:14 | -38.94316 | -72.57521 | 7030 ft | 176 kts | 305° |
| 2026-04-17 13:15 | -38.94196 | -72.57743 | 7030 ft | 176 kts | 305° |
| 2026-04-17 13:15 | -38.94023 | -72.58064 | 7030 ft | 176 kts | 305° |
| 2026-04-17 13:15 | -38.93791 | -72.58493 | 7030 ft | 176 kts | 305° |
| 2026-04-17 13:15 | -38.93676 | -72.58707 | 7030 ft | 176 kts | 305° |
| 2026-04-17 13:16 | -38.93445 | -72.59134 | 7030 ft | 176 kts | 305° |
| 2026-04-17 13:16 | -38.93266 | -72.59465 | 7030 ft | 176 kts | 305° |
| 2026-04-17 13:16 | -38.93150 | -72.59679 | 7030 ft | 176 kts | 305° |
| 2026-04-17 13:16 | -38.92917 | -72.60110 | 7030 ft | 176 kts | 305° |
| 2026-04-17 13:17 | -38.92802 | -72.60322 | 7030 ft | 176 kts | 305° |
| 2026-04-17 13:17 | -38.92628 | -72.60645 | 7030 ft | 176 kts | 305° |
| 2026-04-17 13:17 | -38.92512 | -72.60859 | 7030 ft | 176 kts | 305° |
| 2026-04-17 13:17 | -38.92278 | -72.61293 | 7030 ft | 176 kts | 305° |
| 2026-04-17 13:18 | -38.92047 | -72.61719 | 7030 ft | 176 kts | 305° |
| 2026-04-17 13:18 | -38.91929 | -72.61937 | 7030 ft | 176 kts | 305° |
| 2026-04-17 13:18 | -38.91696 | -72.62368 | 7030 ft | 176 kts | 305° |
| 2026-04-17 13:18 | -38.91582 | -72.62578 | 7030 ft | 176 kts | 305° |
| 2026-04-17 13:19 | -38.91345 | -72.63014 | 7029 ft | 176 kts | 306° |
| 2026-04-17 13:19 | -38.91158 | -72.63322 | 7027 ft | 176 kts | 310° |
| 2026-04-17 13:19 | -38.91019 | -72.63510 | 7023 ft | 176 kts | 316° |
| 2026-04-17 13:19 | -38.90778 | -72.63755 | 7019 ft | 175 kts | 326° |
| 2026-04-17 13:20 | -38.90416 | -72.63987 | 7023 ft | 175 kts | 340° |
| 2026-04-17 13:20 | -38.90220 | -72.64062 | 7026 ft | 174 kts | 346° |
| 2026-04-17 13:20 | -38.89926 | -72.64130 | 7036 ft | 174 kts | 352° |
| 2026-04-17 13:20 | -38.89624 | -72.64162 | 7043 ft | 173 kts | 357° |
| 2026-04-17 13:21 | -38.89322 | -72.64168 | 7043 ft | 174 kts | 0° |
| 2026-04-17 13:21 | -38.88919 | -72.64150 | 7039 ft | 174 kts | 3° |
| 2026-04-17 13:21 | -38.88615 | -72.64123 | 7037 ft | 174 kts | 4° |
| 2026-04-17 13:21 | -38.88315 | -72.64089 | 7035 ft | 174 kts | 5° |
| 2026-04-17 13:22 | -38.88012 | -72.64049 | 7033 ft | 175 kts | 6° |
| 2026-04-17 13:22 | -38.87710 | -72.64005 | 7032 ft | 175 kts | 6° |
| 2026-04-17 13:22 | -38.87462 | -72.63968 | 7032 ft | 175 kts | 7° |
| 2026-04-17 13:22 | -38.87161 | -72.63921 | 7031 ft | 175 kts | 7° |
| 2026-04-17 13:23 | -38.86859 | -72.63873 | 7031 ft | 175 kts | 7° |
| 2026-04-17 13:23 | -38.86556 | -72.63825 | 7030 ft | 175 kts | 7° |
| 2026-04-17 13:23 | -38.86254 | -72.63776 | 7030 ft | 175 kts | 7° |
| 2026-04-17 13:23 | -38.85952 | -72.63727 | 7030 ft | 175 kts | 7° |
| 2026-04-17 13:24 | -38.85651 | -72.63679 | 7030 ft | 175 kts | 7° |
| 2026-04-17 13:24 | -38.85347 | -72.63630 | 7030 ft | 175 kts | 7° |
| 2026-04-17 13:24 | -38.85046 | -72.63582 | 7030 ft | 175 kts | 7° |
| 2026-04-17 13:24 | -38.84741 | -72.63534 | 7030 ft | 175 kts | 7° |
| 2026-04-17 13:25 | -38.84644 | -72.63518 | 7030 ft | 175 kts | 7° |